sensor_id;sensor_type;location;lat;lon;timestamp;P1;durP1;ratioP1;P2;durP2;ratioP2
5129;SDS011;2583;50.946;6.954;2023-07-16T00:00:22;1.80;;;1.70;;
5129;SDS011;2583;50.946;6.954;2023-07-16T00:02:49;2.87;;;1.67;;
5129;SDS011;2583;50.946;6.954;2023-07-16T00:05:16;2.73;;;1.80;;
5129;SDS011;2583;50.946;6.954;2023-07-16T00:07:43;2.43;;;2.00;;
5129;SDS011;2583;50.946;6.954;2023-07-16T00:10:10;1.87;;;1.77;;
5129;SDS011;2583;50.946;6.954;2023-07-16T00:12:37;2.03;;;1.77;;
5129;SDS011;2583;50.946;6.954;2023-07-16T00:15:04;3.70;;;1.70;;
5129;SDS011;2583;50.946;6.954;2023-07-16T00:17:33;2.40;;;1.83;;
5129;SDS011;2583;50.946;6.954;2023-07-16T00:20:00;2.60;;;1.80;;
5129;SDS011;2583;50.946;6.954;2023-07-16T00:22:27;3.30;;;1.47;;
5129;SDS011;2583;50.946;6.954;2023-07-16T00:24:54;3.73;;;1.50;;
5129;SDS011;2583;50.946;6.954;2023-07-16T00:27:21;2.60;;;1.67;;
5129;SDS011;2583;50.946;6.954;2023-07-16T00:29:48;3.30;;;1.67;;
5129;SDS011;2583;50.946;6.954;2023-07-16T00:32:14;4.57;;;1.50;;
5129;SDS011;2583;50.946;6.954;2023-07-16T00:34:41;2.03;;;1.70;;
5129;SDS011;2583;50.946;6.954;2023-07-16T00:37:08;3.77;;;1.73;;
5129;SDS011;2583;50.946;6.954;2023-07-16T00:39:35;6.83;;;2.20;;
5129;SDS011;2583;50.946;6.954;2023-07-16T00:42:01;3.93;;;1.83;;
5129;SDS011;2583;50.946;6.954;2023-07-16T00:44:28;2.43;;;2.00;;
5129;SDS011;2583;50.946;6.954;2023-07-16T00:46:57;2.27;;;2.07;;
5129;SDS011;2583;50.946;6.954;2023-07-16T00:49:24;4.03;;;1.90;;
5129;SDS011;2583;50.946;6.954;2023-07-16T00:51:51;3.90;;;1.97;;
5129;SDS011;2583;50.946;6.954;2023-07-16T00:54:19;6.20;;;1.90;;
5129;SDS011;2583;50.946;6.954;2023-07-16T00:56:46;1.83;;;1.70;;
5129;SDS011;2583;50.946;6.954;2023-07-16T00:59:13;4.67;;;2.10;;
5129;SDS011;2583;50.946;6.954;2023-07-16T01:01:40;4.30;;;2.00;;
5129;SDS011;2583;50.946;6.954;2023-07-16T01:04:07;4.43;;;1.67;;
5129;SDS011;2583;50.946;6.954;2023-07-16T01:06:35;2.50;;;1.43;;
5129;SDS011;2583;50.946;6.954;2023-07-16T01:09:08;2.23;;;1.70;;
5129;SDS011;2583;50.946;6.954;2023-07-16T01:11:41;3.97;;;1.47;;
5129;SDS011;2583;50.946;6.954;2023-07-16T01:14:09;3.10;;;2.00;;
5129;SDS011;2583;50.946;6.954;2023-07-16T01:16:37;3.00;;;2.13;;
5129;SDS011;2583;50.946;6.954;2023-07-16T01:19:04;3.50;;;1.60;;
5129;SDS011;2583;50.946;6.954;2023-07-16T01:21:34;1.70;;;1.50;;
5129;SDS011;2583;50.946;6.954;2023-07-16T01:26:51;2.00;;;1.60;;
5129;SDS011;2583;50.946;6.954;2023-07-16T01:29:42;3.30;;;1.60;;
5129;SDS011;2583;50.946;6.954;2023-07-16T01:32:19;2.20;;;1.60;;
5129;SDS011;2583;50.946;6.954;2023-07-16T01:34:48;3.70;;;1.80;;
5129;SDS011;2583;50.946;6.954;2023-07-16T01:37:18;2.80;;;1.70;;
5129;SDS011;2583;50.946;6.954;2023-07-16T01:39:45;2.37;;;1.57;;
5129;SDS011;2583;50.946;6.954;2023-07-16T01:42:13;1.90;;;1.27;;
5129;SDS011;2583;50.946;6.954;2023-07-16T01:44:39;3.27;;;2.23;;
5129;SDS011;2583;50.946;6.954;2023-07-16T01:47:10;4.40;;;1.50;;
5129;SDS011;2583;50.946;6.954;2023-07-16T01:49:37;2.43;;;1.17;;
5129;SDS011;2583;50.946;6.954;2023-07-16T01:52:06;3.70;;;1.40;;
5129;SDS011;2583;50.946;6.954;2023-07-16T01:54:33;2.57;;;1.40;;
5129;SDS011;2583;50.946;6.954;2023-07-16T01:57:00;4.20;;;1.70;;
5129;SDS011;2583;50.946;6.954;2023-07-16T01:59:27;3.90;;;1.90;;
5129;SDS011;2583;50.946;6.954;2023-07-16T02:01:54;2.23;;;1.40;;
5129;SDS011;2583;50.946;6.954;2023-07-16T02:04:21;4.57;;;1.83;;
5129;SDS011;2583;50.946;6.954;2023-07-16T02:06:48;3.47;;;2.07;;
5129;SDS011;2583;50.946;6.954;2023-07-16T02:09:14;2.30;;;1.47;;
5129;SDS011;2583;50.946;6.954;2023-07-16T02:11:41;1.90;;;1.50;;
5129;SDS011;2583;50.946;6.954;2023-07-16T02:14:08;4.30;;;1.40;;
5129;SDS011;2583;50.946;6.954;2023-07-16T02:16:35;1.77;;;1.30;;
5129;SDS011;2583;50.946;6.954;2023-07-16T02:19:02;2.23;;;1.87;;
5129;SDS011;2583;50.946;6.954;2023-07-16T02:21:29;4.00;;;1.47;;
5129;SDS011;2583;50.946;6.954;2023-07-16T02:23:55;3.90;;;1.17;;
5129;SDS011;2583;50.946;6.954;2023-07-16T02:26:22;4.10;;;1.70;;
5129;SDS011;2583;50.946;6.954;2023-07-16T02:28:49;1.73;;;1.20;;
5129;SDS011;2583;50.946;6.954;2023-07-16T02:31:16;6.93;;;1.93;;
5129;SDS011;2583;50.946;6.954;2023-07-16T02:33:43;6.67;;;1.40;;
5129;SDS011;2583;50.946;6.954;2023-07-16T02:36:09;3.50;;;1.20;;
5129;SDS011;2583;50.946;6.954;2023-07-16T02:38:36;3.60;;;1.93;;
5129;SDS011;2583;50.946;6.954;2023-07-16T02:41:03;3.20;;;1.40;;
5129;SDS011;2583;50.946;6.954;2023-07-16T02:43:30;2.67;;;1.67;;
5129;SDS011;2583;50.946;6.954;2023-07-16T02:45:56;1.80;;;1.13;;
5129;SDS011;2583;50.946;6.954;2023-07-16T02:48:23;6.90;;;1.67;;
5129;SDS011;2583;50.946;6.954;2023-07-16T02:50:50;2.77;;;1.53;;
5129;SDS011;2583;50.946;6.954;2023-07-16T02:53:17;4.27;;;1.70;;
5129;SDS011;2583;50.946;6.954;2023-07-16T02:55:44;2.90;;;1.30;;
5129;SDS011;2583;50.946;6.954;2023-07-16T02:58:11;4.20;;;1.57;;
5129;SDS011;2583;50.946;6.954;2023-07-16T03:00:38;2.00;;;1.50;;
5129;SDS011;2583;50.946;6.954;2023-07-16T03:03:05;4.27;;;1.60;;
5129;SDS011;2583;50.946;6.954;2023-07-16T03:05:32;6.10;;;1.60;;
5129;SDS011;2583;50.946;6.954;2023-07-16T03:07:59;5.70;;;1.77;;
5129;SDS011;2583;50.946;6.954;2023-07-16T03:10:25;2.77;;;1.83;;
5129;SDS011;2583;50.946;6.954;2023-07-16T03:12:53;2.97;;;2.00;;
5129;SDS011;2583;50.946;6.954;2023-07-16T03:15:20;2.87;;;1.40;;
5129;SDS011;2583;50.946;6.954;2023-07-16T03:17:46;2.53;;;1.83;;
5129;SDS011;2583;50.946;6.954;2023-07-16T03:20:13;6.03;;;1.63;;
5129;SDS011;2583;50.946;6.954;2023-07-16T03:22:41;3.93;;;1.63;;
5129;SDS011;2583;50.946;6.954;2023-07-16T03:25:07;2.27;;;1.77;;
5129;SDS011;2583;50.946;6.954;2023-07-16T03:27:34;4.33;;;1.80;;
5129;SDS011;2583;50.946;6.954;2023-07-16T03:30:02;2.33;;;1.80;;
5129;SDS011;2583;50.946;6.954;2023-07-16T03:32:30;2.80;;;1.97;;
5129;SDS011;2583;50.946;6.954;2023-07-16T03:35:16;2.77;;;1.47;;
5129;SDS011;2583;50.946;6.954;2023-07-16T03:37:43;6.00;;;1.73;;
5129;SDS011;2583;50.946;6.954;2023-07-16T03:42:41;2.60;;;1.40;;
5129;SDS011;2583;50.946;6.954;2023-07-16T03:45:09;4.67;;;1.80;;
5129;SDS011;2583;50.946;6.954;2023-07-16T03:47:37;1.83;;;1.33;;
5129;SDS011;2583;50.946;6.954;2023-07-16T03:50:04;5.10;;;1.70;;
5129;SDS011;2583;50.946;6.954;2023-07-16T03:52:31;2.60;;;2.10;;
5129;SDS011;2583;50.946;6.954;2023-07-16T03:54:58;3.50;;;1.70;;
5129;SDS011;2583;50.946;6.954;2023-07-16T03:57:27;2.97;;;1.60;;
5129;SDS011;2583;50.946;6.954;2023-07-16T03:59:54;6.80;;;1.70;;
5129;SDS011;2583;50.946;6.954;2023-07-16T04:02:21;3.93;;;1.70;;
5129;SDS011;2583;50.946;6.954;2023-07-16T04:04:48;2.10;;;1.40;;
5129;SDS011;2583;50.946;6.954;2023-07-16T04:07:15;2.90;;;1.63;;
5129;SDS011;2583;50.946;6.954;2023-07-16T04:09:43;5.93;;;2.33;;
5129;SDS011;2583;50.946;6.954;2023-07-16T04:12:10;3.10;;;1.63;;
5129;SDS011;2583;50.946;6.954;2023-07-16T04:14:36;6.00;;;1.90;;
5129;SDS011;2583;50.946;6.954;2023-07-16T04:17:03;2.67;;;2.03;;
5129;SDS011;2583;50.946;6.954;2023-07-16T04:19:30;1.90;;;1.30;;
5129;SDS011;2583;50.946;6.954;2023-07-16T04:21:57;2.73;;;1.30;;
5129;SDS011;2583;50.946;6.954;2023-07-16T04:24:24;3.67;;;1.70;;
5129;SDS011;2583;50.946;6.954;2023-07-16T04:26:53;3.10;;;1.80;;
5129;SDS011;2583;50.946;6.954;2023-07-16T04:29:20;3.73;;;2.20;;
5129;SDS011;2583;50.946;6.954;2023-07-16T04:31:47;3.23;;;1.87;;
5129;SDS011;2583;50.946;6.954;2023-07-16T04:34:14;2.87;;;1.73;;
5129;SDS011;2583;50.946;6.954;2023-07-16T04:36:42;4.07;;;1.63;;
5129;SDS011;2583;50.946;6.954;2023-07-16T04:39:11;4.30;;;2.23;;
5129;SDS011;2583;50.946;6.954;2023-07-16T04:41:38;3.70;;;2.13;;
5129;SDS011;2583;50.946;6.954;2023-07-16T04:44:05;3.97;;;2.27;;
5129;SDS011;2583;50.946;6.954;2023-07-16T04:46:31;3.80;;;1.77;;
5129;SDS011;2583;50.946;6.954;2023-07-16T04:48:59;4.87;;;1.73;;
5129;SDS011;2583;50.946;6.954;2023-07-16T04:51:27;3.60;;;2.13;;
5129;SDS011;2583;50.946;6.954;2023-07-16T04:53:54;8.03;;;2.80;;
5129;SDS011;2583;50.946;6.954;2023-07-16T04:56:21;3.40;;;1.93;;
5129;SDS011;2583;50.946;6.954;2023-07-16T04:58:47;3.40;;;1.87;;
5129;SDS011;2583;50.946;6.954;2023-07-16T05:01:14;3.17;;;2.10;;
5129;SDS011;2583;50.946;6.954;2023-07-16T05:03:41;8.40;;;2.10;;
5129;SDS011;2583;50.946;6.954;2023-07-16T05:06:08;4.43;;;2.33;;
5129;SDS011;2583;50.946;6.954;2023-07-16T05:08:35;5.33;;;2.13;;
5129;SDS011;2583;50.946;6.954;2023-07-16T05:11:02;3.40;;;2.50;;
5129;SDS011;2583;50.946;6.954;2023-07-16T05:13:29;5.23;;;2.50;;
5129;SDS011;2583;50.946;6.954;2023-07-16T05:15:55;4.60;;;1.90;;
5129;SDS011;2583;50.946;6.954;2023-07-16T05:18:22;3.03;;;1.87;;
5129;SDS011;2583;50.946;6.954;2023-07-16T05:20:49;5.33;;;2.33;;
5129;SDS011;2583;50.946;6.954;2023-07-16T05:23:16;5.23;;;2.50;;
5129;SDS011;2583;50.946;6.954;2023-07-16T05:25:46;3.63;;;2.00;;
5129;SDS011;2583;50.946;6.954;2023-07-16T05:28:14;6.20;;;2.27;;
5129;SDS011;2583;50.946;6.954;2023-07-16T05:30:42;9.63;;;2.77;;
5129;SDS011;2583;50.946;6.954;2023-07-16T05:33:09;3.93;;;2.43;;
5129;SDS011;2583;50.946;6.954;2023-07-16T05:35:36;6.33;;;2.30;;
5129;SDS011;2583;50.946;6.954;2023-07-16T05:38:04;4.90;;;2.80;;
5129;SDS011;2583;50.946;6.954;2023-07-16T05:40:31;7.50;;;2.73;;
5129;SDS011;2583;50.946;6.954;2023-07-16T05:42:58;2.40;;;2.10;;
5129;SDS011;2583;50.946;6.954;2023-07-16T05:45:25;6.37;;;2.87;;
5129;SDS011;2583;50.946;6.954;2023-07-16T05:47:52;5.70;;;3.17;;
5129;SDS011;2583;50.946;6.954;2023-07-16T05:50:18;5.03;;;2.40;;
5129;SDS011;2583;50.946;6.954;2023-07-16T05:52:45;5.67;;;2.60;;
5129;SDS011;2583;50.946;6.954;2023-07-16T05:55:14;9.27;;;3.10;;
5129;SDS011;2583;50.946;6.954;2023-07-16T05:57:41;3.33;;;2.47;;
5129;SDS011;2583;50.946;6.954;2023-07-16T06:00:08;4.13;;;3.00;;
5129;SDS011;2583;50.946;6.954;2023-07-16T06:02:35;3.10;;;2.60;;
5129;SDS011;2583;50.946;6.954;2023-07-16T06:05:02;4.10;;;3.13;;
5129;SDS011;2583;50.946;6.954;2023-07-16T06:07:29;4.63;;;2.80;;
5129;SDS011;2583;50.946;6.954;2023-07-16T06:09:57;6.20;;;2.87;;
5129;SDS011;2583;50.946;6.954;2023-07-16T06:12:24;4.37;;;3.67;;
5129;SDS011;2583;50.946;6.954;2023-07-16T06:14:51;6.73;;;3.57;;
5129;SDS011;2583;50.946;6.954;2023-07-16T06:17:18;3.83;;;3.43;;
5129;SDS011;2583;50.946;6.954;2023-07-16T06:19:45;4.30;;;2.83;;
5129;SDS011;2583;50.946;6.954;2023-07-16T06:22:14;5.43;;;3.30;;
5129;SDS011;2583;50.946;6.954;2023-07-16T06:24:41;8.03;;;3.90;;
5129;SDS011;2583;50.946;6.954;2023-07-16T06:27:08;8.60;;;3.17;;
5129;SDS011;2583;50.946;6.954;2023-07-16T06:29:34;5.13;;;3.00;;
5129;SDS011;2583;50.946;6.954;2023-07-16T06:32:01;4.10;;;3.57;;
5129;SDS011;2583;50.946;6.954;2023-07-16T06:34:29;5.33;;;3.60;;
5129;SDS011;2583;50.946;6.954;2023-07-16T06:36:56;5.73;;;3.67;;
5129;SDS011;2583;50.946;6.954;2023-07-16T06:39:22;4.40;;;3.37;;
5129;SDS011;2583;50.946;6.954;2023-07-16T06:41:49;7.43;;;3.17;;
5129;SDS011;2583;50.946;6.954;2023-07-16T06:44:16;7.77;;;3.83;;
5129;SDS011;2583;50.946;6.954;2023-07-16T06:46:43;5.50;;;3.67;;
5129;SDS011;2583;50.946;6.954;2023-07-16T06:49:09;4.03;;;3.63;;
5129;SDS011;2583;50.946;6.954;2023-07-16T06:51:36;4.70;;;3.90;;
5129;SDS011;2583;50.946;6.954;2023-07-16T06:54:03;5.17;;;3.60;;
5129;SDS011;2583;50.946;6.954;2023-07-16T06:56:30;5.70;;;3.50;;
5129;SDS011;2583;50.946;6.954;2023-07-16T06:58:56;7.03;;;4.20;;
5129;SDS011;2583;50.946;6.954;2023-07-16T07:01:23;9.27;;;4.30;;
5129;SDS011;2583;50.946;6.954;2023-07-16T07:03:50;6.57;;;3.83;;
5129;SDS011;2583;50.946;6.954;2023-07-16T07:06:17;7.30;;;4.20;;
5129;SDS011;2583;50.946;6.954;2023-07-16T07:08:44;5.40;;;3.60;;
5129;SDS011;2583;50.946;6.954;2023-07-16T07:11:11;5.80;;;3.60;;
5129;SDS011;2583;50.946;6.954;2023-07-16T07:13:38;10.60;;;4.23;;
5129;SDS011;2583;50.946;6.954;2023-07-16T07:16:05;6.43;;;3.63;;
5129;SDS011;2583;50.946;6.954;2023-07-16T07:18:31;6.40;;;3.77;;
5129;SDS011;2583;50.946;6.954;2023-07-16T07:20:58;3.33;;;2.80;;
5129;SDS011;2583;50.946;6.954;2023-07-16T07:23:25;4.73;;;3.10;;
5129;SDS011;2583;50.946;6.954;2023-07-16T07:25:52;3.80;;;3.50;;
5129;SDS011;2583;50.946;6.954;2023-07-16T07:28:19;5.20;;;3.40;;
5129;SDS011;2583;50.946;6.954;2023-07-16T07:30:46;5.00;;;4.07;;
5129;SDS011;2583;50.946;6.954;2023-07-16T07:33:13;6.20;;;3.80;;
5129;SDS011;2583;50.946;6.954;2023-07-16T07:35:40;7.30;;;4.00;;
5129;SDS011;2583;50.946;6.954;2023-07-16T07:38:06;5.10;;;3.50;;
5129;SDS011;2583;50.946;6.954;2023-07-16T07:40:33;4.20;;;3.67;;
5129;SDS011;2583;50.946;6.954;2023-07-16T07:43:00;4.70;;;3.90;;
5129;SDS011;2583;50.946;6.954;2023-07-16T07:45:27;4.30;;;3.90;;
5129;SDS011;2583;50.946;6.954;2023-07-16T07:47:53;5.00;;;3.87;;
5129;SDS011;2583;50.946;6.954;2023-07-16T07:50:20;6.17;;;3.00;;
5129;SDS011;2583;50.946;6.954;2023-07-16T07:52:47;5.47;;;3.67;;
5129;SDS011;2583;50.946;6.954;2023-07-16T07:55:14;4.50;;;4.10;;
5129;SDS011;2583;50.946;6.954;2023-07-16T07:57:41;8.90;;;3.87;;
5129;SDS011;2583;50.946;6.954;2023-07-16T08:00:08;4.57;;;3.50;;
5129;SDS011;2583;50.946;6.954;2023-07-16T08:02:38;4.63;;;4.33;;
5129;SDS011;2583;50.946;6.954;2023-07-16T08:05:05;3.60;;;3.30;;
5129;SDS011;2583;50.946;6.954;2023-07-16T08:07:33;4.47;;;3.80;;
5129;SDS011;2583;50.946;6.954;2023-07-16T08:10:00;5.10;;;4.60;;
5129;SDS011;2583;50.946;6.954;2023-07-16T08:12:26;5.07;;;3.93;;
5129;SDS011;2583;50.946;6.954;2023-07-16T08:14:53;4.43;;;3.83;;
5129;SDS011;2583;50.946;6.954;2023-07-16T08:17:20;6.30;;;3.80;;
5129;SDS011;2583;50.946;6.954;2023-07-16T08:19:49;4.70;;;3.00;;
5129;SDS011;2583;50.946;6.954;2023-07-16T08:22:16;6.17;;;3.60;;
5129;SDS011;2583;50.946;6.954;2023-07-16T08:24:43;4.13;;;3.73;;
5129;SDS011;2583;50.946;6.954;2023-07-16T08:27:10;4.50;;;4.10;;
5129;SDS011;2583;50.946;6.954;2023-07-16T08:29:37;4.57;;;3.80;;
5129;SDS011;2583;50.946;6.954;2023-07-16T08:32:04;5.23;;;4.70;;
5129;SDS011;2583;50.946;6.954;2023-07-16T08:34:31;4.20;;;3.63;;
5129;SDS011;2583;50.946;6.954;2023-07-16T08:36:58;5.53;;;3.67;;
5129;SDS011;2583;50.946;6.954;2023-07-16T08:39:24;5.67;;;4.30;;
5129;SDS011;2583;50.946;6.954;2023-07-16T08:41:52;7.20;;;4.13;;
5129;SDS011;2583;50.946;6.954;2023-07-16T08:44:20;6.33;;;4.27;;
5129;SDS011;2583;50.946;6.954;2023-07-16T08:46:47;4.80;;;4.40;;
5129;SDS011;2583;50.946;6.954;2023-07-16T08:49:14;5.17;;;3.40;;
5129;SDS011;2583;50.946;6.954;2023-07-16T08:51:43;3.63;;;3.33;;
5129;SDS011;2583;50.946;6.954;2023-07-16T08:54:13;4.30;;;3.90;;
5129;SDS011;2583;50.946;6.954;2023-07-16T08:56:46;5.37;;;3.40;;
5129;SDS011;2583;50.946;6.954;2023-07-16T08:59:17;3.80;;;3.50;;
5129;SDS011;2583;50.946;6.954;2023-07-16T09:01:44;3.53;;;3.23;;
5129;SDS011;2583;50.946;6.954;2023-07-16T09:04:15;3.20;;;2.90;;
5129;SDS011;2583;50.946;6.954;2023-07-16T09:06:42;3.50;;;3.20;;
5129;SDS011;2583;50.946;6.954;2023-07-16T09:09:30;4.03;;;3.27;;
5129;SDS011;2583;50.946;6.954;2023-07-16T09:11:57;4.07;;;3.17;;
5129;SDS011;2583;50.946;6.954;2023-07-16T09:14:23;3.87;;;3.10;;
5129;SDS011;2583;50.946;6.954;2023-07-16T09:16:50;3.80;;;3.27;;
5129;SDS011;2583;50.946;6.954;2023-07-16T09:19:18;3.70;;;3.30;;
5129;SDS011;2583;50.946;6.954;2023-07-16T09:21:49;4.80;;;3.50;;
5129;SDS011;2583;50.946;6.954;2023-07-16T09:24:18;6.40;;;3.07;;
5129;SDS011;2583;50.946;6.954;2023-07-16T09:26:47;3.97;;;2.80;;
5129;SDS011;2583;50.946;6.954;2023-07-16T09:29:19;2.70;;;2.40;;
5129;SDS011;2583;50.946;6.954;2023-07-16T09:31:59;3.70;;;3.30;;
5129;SDS011;2583;50.946;6.954;2023-07-16T09:34:27;3.30;;;2.67;;
5129;SDS011;2583;50.946;6.954;2023-07-16T09:36:55;2.83;;;2.57;;
5129;SDS011;2583;50.946;6.954;2023-07-16T09:39:23;3.27;;;2.97;;
5129;SDS011;2583;50.946;6.954;2023-07-16T09:41:52;3.47;;;2.90;;
5129;SDS011;2583;50.946;6.954;2023-07-16T09:44:19;3.80;;;2.40;;
5129;SDS011;2583;50.946;6.954;2023-07-16T09:46:46;5.10;;;2.47;;
5129;SDS011;2583;50.946;6.954;2023-07-16T09:49:14;3.30;;;2.77;;
5129;SDS011;2583;50.946;6.954;2023-07-16T09:51:42;3.67;;;3.30;;
5129;SDS011;2583;50.946;6.954;2023-07-16T09:54:12;3.00;;;2.70;;
5129;SDS011;2583;50.946;6.954;2023-07-16T09:56:43;2.60;;;2.40;;
5129;SDS011;2583;50.946;6.954;2023-07-16T09:59:13;4.03;;;2.80;;
5129;SDS011;2583;50.946;6.954;2023-07-16T10:01:42;3.63;;;2.20;;
5129;SDS011;2583;50.946;6.954;2023-07-16T10:04:10;2.70;;;2.50;;
5129;SDS011;2583;50.946;6.954;2023-07-16T10:06:53;4.23;;;2.80;;
5129;SDS011;2583;50.946;6.954;2023-07-16T10:09:31;2.90;;;2.30;;
5129;SDS011;2583;50.946;6.954;2023-07-16T10:12:14;4.70;;;2.90;;
5129;SDS011;2583;50.946;6.954;2023-07-16T10:14:48;2.97;;;2.67;;
5129;SDS011;2583;50.946;6.954;2023-07-16T10:17:25;4.60;;;2.37;;
5129;SDS011;2583;50.946;6.954;2023-07-16T10:22:39;2.60;;;2.40;;
5129;SDS011;2583;50.946;6.954;2023-07-16T10:27:47;5.47;;;3.17;;
5129;SDS011;2583;50.946;6.954;2023-07-16T10:30:15;2.73;;;2.50;;
5129;SDS011;2583;50.946;6.954;2023-07-16T10:32:42;4.13;;;2.67;;
5129;SDS011;2583;50.946;6.954;2023-07-16T10:35:10;3.30;;;2.40;;
5129;SDS011;2583;50.946;6.954;2023-07-16T10:37:38;3.77;;;2.80;;
5129;SDS011;2583;50.946;6.954;2023-07-16T10:40:05;3.90;;;2.80;;
5129;SDS011;2583;50.946;6.954;2023-07-16T10:42:37;3.13;;;2.83;;
5129;SDS011;2583;50.946;6.954;2023-07-16T10:45:08;3.10;;;2.80;;
5129;SDS011;2583;50.946;6.954;2023-07-16T10:47:39;2.70;;;2.50;;
5129;SDS011;2583;50.946;6.954;2023-07-16T10:50:16;4.27;;;2.97;;
5129;SDS011;2583;50.946;6.954;2023-07-16T10:52:51;4.63;;;3.30;;
5129;SDS011;2583;50.946;6.954;2023-07-16T10:55:23;2.87;;;2.50;;
5129;SDS011;2583;50.946;6.954;2023-07-16T10:57:52;3.47;;;2.60;;
5129;SDS011;2583;50.946;6.954;2023-07-16T11:00:20;2.53;;;2.27;;
5129;SDS011;2583;50.946;6.954;2023-07-16T11:02:49;4.73;;;2.50;;
5129;SDS011;2583;50.946;6.954;2023-07-16T11:05:17;3.50;;;2.50;;
5129;SDS011;2583;50.946;6.954;2023-07-16T11:07:48;2.83;;;2.53;;
5129;SDS011;2583;50.946;6.954;2023-07-16T11:10:20;3.30;;;2.40;;
5129;SDS011;2583;50.946;6.954;2023-07-16T11:12:50;3.97;;;2.43;;
5129;SDS011;2583;50.946;6.954;2023-07-16T11:15:31;5.63;;;2.43;;
5129;SDS011;2583;50.946;6.954;2023-07-16T11:17:59;3.40;;;2.70;;
5129;SDS011;2583;50.946;6.954;2023-07-16T11:20:26;4.63;;;2.67;;
5129;SDS011;2583;50.946;6.954;2023-07-16T11:22:53;3.60;;;2.60;;
5129;SDS011;2583;50.946;6.954;2023-07-16T11:25:23;2.73;;;2.53;;
5129;SDS011;2583;50.946;6.954;2023-07-16T11:27:50;2.83;;;2.63;;
5129;SDS011;2583;50.946;6.954;2023-07-16T11:30:22;3.10;;;2.80;;
5129;SDS011;2583;50.946;6.954;2023-07-16T11:32:51;3.17;;;2.60;;
5129;SDS011;2583;50.946;6.954;2023-07-16T11:35:18;3.20;;;2.13;;
5129;SDS011;2583;50.946;6.954;2023-07-16T11:37:46;3.03;;;2.70;;
5129;SDS011;2583;50.946;6.954;2023-07-16T11:40:17;3.00;;;2.80;;
5129;SDS011;2583;50.946;6.954;2023-07-16T11:42:45;3.40;;;3.10;;
5129;SDS011;2583;50.946;6.954;2023-07-16T11:45:19;4.37;;;2.27;;
5129;SDS011;2583;50.946;6.954;2023-07-16T11:47:52;3.23;;;2.40;;
5129;SDS011;2583;50.946;6.954;2023-07-16T11:50:19;4.00;;;2.77;;
5129;SDS011;2583;50.946;6.954;2023-07-16T11:52:52;2.60;;;2.40;;
5129;SDS011;2583;50.946;6.954;2023-07-16T11:55:20;4.30;;;2.63;;
5129;SDS011;2583;50.946;6.954;2023-07-16T11:57:47;5.30;;;2.83;;
5129;SDS011;2583;50.946;6.954;2023-07-16T12:00:14;3.47;;;2.93;;
5129;SDS011;2583;50.946;6.954;2023-07-16T12:02:41;3.73;;;2.73;;
5129;SDS011;2583;50.946;6.954;2023-07-16T12:05:08;3.43;;;2.47;;
5129;SDS011;2583;50.946;6.954;2023-07-16T12:07:39;4.10;;;3.17;;
5129;SDS011;2583;50.946;6.954;2023-07-16T12:10:06;6.37;;;3.10;;
5129;SDS011;2583;50.946;6.954;2023-07-16T12:12:34;2.93;;;2.67;;
5129;SDS011;2583;50.946;6.954;2023-07-16T12:15:05;2.97;;;2.77;;
5129;SDS011;2583;50.946;6.954;2023-07-16T12:17:33;6.13;;;3.20;;
5129;SDS011;2583;50.946;6.954;2023-07-16T12:20:01;5.30;;;2.70;;
5129;SDS011;2583;50.946;6.954;2023-07-16T12:22:29;6.60;;;2.97;;
5129;SDS011;2583;50.946;6.954;2023-07-16T12:24:56;4.17;;;2.50;;
5129;SDS011;2583;50.946;6.954;2023-07-16T12:27:23;2.90;;;2.70;;
5129;SDS011;2583;50.946;6.954;2023-07-16T12:29:50;3.60;;;3.00;;
5129;SDS011;2583;50.946;6.954;2023-07-16T12:32:18;7.73;;;2.80;;
5129;SDS011;2583;50.946;6.954;2023-07-16T12:34:46;3.37;;;2.47;;
5129;SDS011;2583;50.946;6.954;2023-07-16T12:37:13;3.50;;;2.50;;
5129;SDS011;2583;50.946;6.954;2023-07-16T12:39:40;2.40;;;2.20;;
5129;SDS011;2583;50.946;6.954;2023-07-16T12:42:07;3.70;;;2.80;;
5129;SDS011;2583;50.946;6.954;2023-07-16T12:44:34;5.10;;;3.17;;
5129;SDS011;2583;50.946;6.954;2023-07-16T12:47:01;3.23;;;2.93;;
5129;SDS011;2583;50.946;6.954;2023-07-16T12:49:28;3.77;;;2.80;;
5129;SDS011;2583;50.946;6.954;2023-07-16T12:51:55;5.73;;;3.20;;
5129;SDS011;2583;50.946;6.954;2023-07-16T12:54:22;6.73;;;3.23;;
5129;SDS011;2583;50.946;6.954;2023-07-16T12:56:49;6.60;;;2.77;;
5129;SDS011;2583;50.946;6.954;2023-07-16T12:59:16;3.20;;;2.90;;
5129;SDS011;2583;50.946;6.954;2023-07-16T13:01:43;3.07;;;2.73;;
5129;SDS011;2583;50.946;6.954;2023-07-16T13:04:10;2.90;;;2.70;;
5129;SDS011;2583;50.946;6.954;2023-07-16T13:06:37;3.60;;;3.27;;
5129;SDS011;2583;50.946;6.954;2023-07-16T13:09:04;3.10;;;2.80;;
5129;SDS011;2583;50.946;6.954;2023-07-16T13:11:31;3.77;;;2.90;;
5129;SDS011;2583;50.946;6.954;2023-07-16T13:13:58;2.90;;;2.60;;
5129;SDS011;2583;50.946;6.954;2023-07-16T13:16:25;5.10;;;3.00;;
5129;SDS011;2583;50.946;6.954;2023-07-16T13:18:52;3.20;;;2.80;;
5129;SDS011;2583;50.946;6.954;2023-07-16T13:21:19;4.13;;;3.33;;
5129;SDS011;2583;50.946;6.954;2023-07-16T13:23:46;3.90;;;3.53;;
5129;SDS011;2583;50.946;6.954;2023-07-16T13:26:13;4.80;;;2.93;;
5129;SDS011;2583;50.946;6.954;2023-07-16T13:28:40;3.70;;;3.20;;
5129;SDS011;2583;50.946;6.954;2023-07-16T13:31:07;6.20;;;3.20;;
5129;SDS011;2583;50.946;6.954;2023-07-16T13:38:58;4.90;;;3.63;;
5129;SDS011;2583;50.946;6.954;2023-07-16T13:41:24;3.43;;;3.13;;
5129;SDS011;2583;50.946;6.954;2023-07-16T13:43:51;4.07;;;3.33;;
5129;SDS011;2583;50.946;6.954;2023-07-16T13:46:19;7.30;;;3.17;;
5129;SDS011;2583;50.946;6.954;2023-07-16T13:48:46;3.20;;;2.97;;
5129;SDS011;2583;50.946;6.954;2023-07-16T13:51:24;3.50;;;2.90;;
5129;SDS011;2583;50.946;6.954;2023-07-16T13:53:51;3.53;;;2.87;;
5129;SDS011;2583;50.946;6.954;2023-07-16T13:56:18;5.63;;;3.20;;
5129;SDS011;2583;50.946;6.954;2023-07-16T13:58:45;4.57;;;2.97;;
5129;SDS011;2583;50.946;6.954;2023-07-16T14:01:13;3.37;;;3.00;;
5129;SDS011;2583;50.946;6.954;2023-07-16T14:03:40;3.00;;;2.53;;
5129;SDS011;2583;50.946;6.954;2023-07-16T14:06:07;3.77;;;3.00;;
5129;SDS011;2583;50.946;6.954;2023-07-16T14:08:34;3.20;;;2.97;;
5129;SDS011;2583;50.946;6.954;2023-07-16T14:11:02;5.50;;;2.93;;
5129;SDS011;2583;50.946;6.954;2023-07-16T14:13:29;3.27;;;2.97;;
5129;SDS011;2583;50.946;6.954;2023-07-16T14:15:56;5.10;;;3.00;;
5129;SDS011;2583;50.946;6.954;2023-07-16T14:18:23;3.60;;;2.40;;
5129;SDS011;2583;50.946;6.954;2023-07-16T14:20:50;3.77;;;2.43;;
5129;SDS011;2583;50.946;6.954;2023-07-16T14:23:17;5.50;;;2.60;;
5129;SDS011;2583;50.946;6.954;2023-07-16T14:25:43;5.63;;;2.90;;
5129;SDS011;2583;50.946;6.954;2023-07-16T14:28:10;7.27;;;3.27;;
5129;SDS011;2583;50.946;6.954;2023-07-16T14:30:37;3.00;;;2.80;;
5129;SDS011;2583;50.946;6.954;2023-07-16T14:33:04;2.87;;;2.67;;
5129;SDS011;2583;50.946;6.954;2023-07-16T14:35:32;3.33;;;3.03;;
5129;SDS011;2583;50.946;6.954;2023-07-16T14:38:03;3.90;;;3.50;;
5129;SDS011;2583;50.946;6.954;2023-07-16T14:40:29;3.33;;;3.03;;
5129;SDS011;2583;50.946;6.954;2023-07-16T14:42:56;3.17;;;2.43;;
5129;SDS011;2583;50.946;6.954;2023-07-16T14:45:23;4.27;;;2.27;;
5129;SDS011;2583;50.946;6.954;2023-07-16T14:47:51;3.70;;;3.07;;
5129;SDS011;2583;50.946;6.954;2023-07-16T14:50:17;2.83;;;2.53;;
5129;SDS011;2583;50.946;6.954;2023-07-16T14:52:44;2.67;;;2.07;;
5129;SDS011;2583;50.946;6.954;2023-07-16T14:55:11;3.70;;;2.53;;
5129;SDS011;2583;50.946;6.954;2023-07-16T14:57:38;8.10;;;2.93;;
5129;SDS011;2583;50.946;6.954;2023-07-16T15:00:05;3.23;;;2.60;;
5129;SDS011;2583;50.946;6.954;2023-07-16T15:02:34;3.20;;;2.50;;
5129;SDS011;2583;50.946;6.954;2023-07-16T15:05:00;4.77;;;2.40;;
5129;SDS011;2583;50.946;6.954;2023-07-16T15:07:27;3.73;;;2.87;;
5129;SDS011;2583;50.946;6.954;2023-07-16T15:09:54;3.53;;;3.23;;
5129;SDS011;2583;50.946;6.954;2023-07-16T15:12:21;3.23;;;2.80;;
5129;SDS011;2583;50.946;6.954;2023-07-16T15:14:47;5.97;;;3.33;;
5129;SDS011;2583;50.946;6.954;2023-07-16T15:17:14;3.13;;;2.00;;
5129;SDS011;2583;50.946;6.954;2023-07-16T15:19:41;4.50;;;2.73;;
5129;SDS011;2583;50.946;6.954;2023-07-16T15:22:08;5.40;;;2.43;;
5129;SDS011;2583;50.946;6.954;2023-07-16T15:24:36;2.93;;;2.47;;
5129;SDS011;2583;50.946;6.954;2023-07-16T15:27:03;5.70;;;2.63;;
5129;SDS011;2583;50.946;6.954;2023-07-16T15:29:30;4.10;;;3.40;;
5129;SDS011;2583;50.946;6.954;2023-07-16T15:31:57;3.80;;;2.83;;
5129;SDS011;2583;50.946;6.954;2023-07-16T15:34:28;4.03;;;2.40;;